createdAt,value
2023-03-02T00:01:42.735Z,-1.72
2023-03-02T00:04:13.280Z,-1.78
2023-03-02T00:06:40.655Z,-1.84
2023-03-02T00:09:07.963Z,-1.89
2023-03-02T00:11:35.484Z,-1.93
2023-03-02T00:14:06.187Z,-1.98
2023-03-02T00:16:34.618Z,-2.02
2023-03-02T00:19:02.285Z,-2.06
2023-03-02T00:21:31.686Z,-2.11
2023-03-02T00:23:59.083Z,-2.16
2023-03-02T00:26:26.670Z,-2.21
2023-03-02T00:28:54.300Z,-2.25
2023-03-02T00:31:21.647Z,-2.29
2023-03-02T00:33:50.902Z,-2.32
2023-03-02T00:36:18.550Z,-2.35
2023-03-02T00:38:47.494Z,-2.37
2023-03-02T00:41:16.053Z,-2.38
2023-03-02T00:43:43.690Z,-2.39
2023-03-02T00:46:13.430Z,-2.42
2023-03-02T00:48:41.764Z,-2.45
2023-03-02T00:51:13.374Z,-2.47
2023-03-02T00:53:43.730Z,-2.49
2023-03-02T00:56:12.596Z,-2.52
2023-03-02T00:58:42.270Z,-2.54
2023-03-02T01:01:12.070Z,-2.57
2023-03-02T01:03:42.744Z,-2.62
2023-03-02T01:06:18.326Z,-2.64
2023-03-02T01:08:46.786Z,-2.64
2023-03-02T01:11:15.901Z,-2.64
2023-03-02T01:13:44.154Z,-2.64
2023-03-02T01:16:12.174Z,-2.65
2023-03-02T01:18:44.568Z,-2.67
2023-03-02T01:21:14.200Z,-2.70
2023-03-02T01:23:42.229Z,-2.74
2023-03-02T01:26:10.411Z,-2.76
2023-03-02T01:28:39.140Z,-2.76
2023-03-02T01:31:07.245Z,-2.76
2023-03-02T01:33:35.461Z,-2.76
2023-03-02T01:36:06.973Z,-2.76
2023-03-02T01:38:34.929Z,-2.76
2023-03-02T01:41:02.525Z,-2.75
2023-03-02T01:43:31.173Z,-2.74
2023-03-02T01:46:18.296Z,-2.75
2023-03-02T01:48:58.084Z,-2.76
2023-03-02T01:51:43.741Z,-2.76
2023-03-02T01:54:17.018Z,-2.77
2023-03-02T01:56:44.980Z,-2.77
2023-03-02T01:59:14.413Z,-2.77
2023-03-02T02:01:44.587Z,-2.75
2023-03-02T02:04:12.203Z,-2.74
2023-03-02T02:06:44.933Z,-2.75
2023-03-02T02:09:14.349Z,-2.74
2023-03-02T02:11:43.894Z,-2.74
2023-03-02T02:14:11.991Z,-2.72
2023-03-02T02:16:41.933Z,-2.68
2023-03-02T02:19:54.672Z,-2.65
2023-03-02T02:22:32.662Z,-2.62
2023-03-02T02:25:09.828Z,-2.61
2023-03-02T02:27:37.958Z,-2.61
2023-03-02T02:30:06.584Z,-2.62
2023-03-02T02:32:36.412Z,-2.62
2023-03-02T02:35:11.438Z,-2.63
2023-03-02T02:37:55.587Z,-2.63
2023-03-02T02:40:56.623Z,-2.64
2023-03-02T02:43:28.065Z,-2.65
2023-03-02T02:45:57.231Z,-2.67
2023-03-02T02:48:30.892Z,-2.69
2023-03-02T02:51:03.199Z,-2.70
2023-03-02T02:53:46.795Z,-2.69
2023-03-02T02:56:15.637Z,-2.68
2023-03-02T02:58:50.462Z,-2.68
2023-03-02T03:01:20.315Z,-2.69
2023-03-02T03:04:03.150Z,-2.70
2023-03-02T03:06:41.901Z,-2.70
2023-03-02T03:09:10.596Z,-2.70
2023-03-02T03:11:57.641Z,-2.69
2023-03-02T03:14:36.743Z,-2.69
2023-03-02T03:17:11.753Z,-2.72
2023-03-02T03:19:45.197Z,-2.74
2023-03-02T03:22:13.425Z,-2.76
2023-03-02T03:24:42.871Z,-2.79
2023-03-02T03:27:13.484Z,-2.80
2023-03-02T03:29:48.366Z,-2.80
2023-03-02T03:32:19.473Z,-2.81
2023-03-02T03:34:52.216Z,-2.81
2023-03-02T03:37:24.378Z,-2.80
2023-03-02T03:39:52.976Z,-2.80
2023-03-02T03:42:22.412Z,-2.79
2023-03-02T03:44:50.618Z,-2.79
2023-03-02T03:47:18.600Z,-2.79
2023-03-02T03:49:46.875Z,-2.79
2023-03-02T03:52:14.783Z,-2.80
2023-03-02T03:54:43.093Z,-2.80
2023-03-02T03:57:11.849Z,-2.79
2023-03-02T03:59:40.162Z,-2.77
2023-03-02T04:02:10.986Z,-2.76
2023-03-02T04:04:42.796Z,-2.76
2023-03-02T04:07:20.949Z,-2.74
2023-03-02T04:09:48.614Z,-2.74
2023-03-02T04:12:22.039Z,-2.73
2023-03-02T04:14:53.180Z,-2.71
2023-03-02T04:17:20.905Z,-2.71
2023-03-02T04:19:52.115Z,-2.71
2023-03-02T04:22:20.430Z,-2.72
2023-03-02T04:24:49.094Z,-2.73
2023-03-02T04:27:17.938Z,-2.73
2023-03-02T04:29:47.031Z,-2.71
2023-03-02T04:32:15.085Z,-2.70
2023-03-02T04:34:45.306Z,-2.68
2023-03-02T04:37:15.688Z,-2.66
2023-03-02T04:39:47.018Z,-2.64
2023-03-02T04:42:21.047Z,-2.63
2023-03-02T04:44:49.034Z,-2.61
2023-03-02T04:47:17.245Z,-2.59
2023-03-02T04:49:45.573Z,-2.57
2023-03-02T04:52:13.112Z,-2.55
2023-03-02T04:54:40.723Z,-2.53
2023-03-02T04:57:08.344Z,-2.51
2023-03-02T04:59:39.685Z,-2.50
2023-03-02T05:02:07.356Z,-2.49
2023-03-02T05:04:40.874Z,-2.47
2023-03-02T05:07:08.473Z,-2.44
2023-03-02T05:09:36.376Z,-2.39
2023-03-02T05:12:04.760Z,-2.34
2023-03-02T05:14:32.956Z,-2.29
2023-03-02T05:17:06.082Z,-2.24
2023-03-02T05:19:34.728Z,-2.17
2023-03-02T05:22:02.409Z,-2.11
2023-03-02T05:24:30.083Z,-2.06
2023-03-02T05:26:58.042Z,-2.00
2023-03-02T05:29:25.811Z,-1.93
2023-03-02T05:31:54.104Z,-1.87
2023-03-02T05:34:22.256Z,-1.79
2023-03-02T05:36:49.858Z,-1.71
2023-03-02T05:39:19.738Z,-1.63
2023-03-02T05:41:47.503Z,-1.57
2023-03-02T05:44:15.125Z,-1.50
2023-03-02T05:46:43.135Z,-1.44
2023-03-02T05:49:10.845Z,-1.36
2023-03-02T05:51:39.133Z,-1.29
2023-03-02T05:54:07.184Z,-1.22
2023-03-02T05:56:34.990Z,-1.15
2023-03-02T05:59:02.768Z,-1.08
2023-03-02T06:01:33.097Z,-1.01
2023-03-02T06:04:00.964Z,-0.93
2023-03-02T06:06:29.019Z,-0.86
2023-03-02T06:08:57.959Z,-0.80
2023-03-02T06:11:25.657Z,-0.72
2023-03-02T06:13:53.856Z,-0.65
2023-03-02T06:16:21.818Z,-0.57
2023-03-02T06:18:50.425Z,-0.50
2023-03-02T06:21:18.652Z,-0.41
2023-03-02T06:23:47.018Z,-0.32
2023-03-02T06:26:14.769Z,-0.22
2023-03-02T06:28:52.104Z,-0.10
2023-03-02T06:31:21.804Z,0.01
2023-03-02T06:33:49.582Z,0.12
2023-03-02T06:36:17.378Z,0.23
2023-03-02T06:38:45.480Z,0.34
2023-03-02T06:41:13.300Z,0.43
2023-03-02T06:43:40.866Z,0.52
2023-03-02T06:46:08.808Z,0.62
2023-03-02T06:48:36.542Z,0.71
2023-03-02T06:51:04.376Z,0.80
2023-03-02T06:53:32.519Z,0.90
2023-03-02T06:56:00.235Z,0.99
2023-03-02T06:58:28.011Z,1.07
2023-03-02T07:00:55.722Z,1.15
2023-03-02T07:03:30.656Z,1.24
2023-03-02T07:05:58.476Z,1.34
2023-03-02T07:08:28.919Z,1.44
2023-03-02T07:10:56.604Z,1.55
2023-03-02T07:13:24.263Z,1.66
2023-03-02T07:15:59.670Z,1.76
2023-03-02T07:18:27.276Z,1.87
2023-03-02T07:20:54.938Z,2.00
2023-03-02T07:23:23.539Z,2.12
2023-03-02T07:25:51.210Z,2.22
2023-03-02T07:28:21.499Z,2.34
2023-03-02T07:30:49.668Z,2.42
2023-03-02T07:33:17.397Z,2.48
2023-03-02T07:35:45.381Z,2.57
2023-03-02T07:38:13.049Z,2.67
2023-03-02T07:40:41.657Z,2.76
2023-03-02T07:43:10.623Z,2.86
2023-03-02T07:45:38.346Z,2.94
2023-03-02T07:48:06.151Z,2.99
2023-03-02T07:50:38.542Z,3.08
2023-03-02T07:53:06.688Z,3.18
2023-03-02T07:55:34.359Z,3.29
2023-03-02T07:58:02.056Z,3.39
2023-03-02T08:00:29.833Z,3.46
2023-03-02T08:02:57.496Z,3.52
2023-03-02T08:05:28.628Z,3.58
2023-03-02T08:07:56.817Z,3.64
2023-03-02T08:10:24.374Z,3.70
2023-03-02T08:12:52.006Z,3.80
2023-03-02T08:15:23.380Z,3.91
2023-03-02T08:17:51.343Z,4.02
2023-03-02T08:20:21.574Z,4.13
2023-03-02T08:22:52.049Z,4.20
2023-03-02T08:25:20.419Z,4.28
2023-03-02T08:27:48.055Z,4.33
2023-03-02T08:30:15.795Z,4.37
2023-03-02T08:32:43.379Z,4.44
2023-03-02T08:35:12.701Z,4.51
2023-03-02T08:37:41.696Z,4.59
2023-03-02T08:40:10.518Z,4.67
2023-03-02T08:42:38.599Z,4.72
2023-03-02T08:45:08.141Z,4.74
2023-03-02T08:47:38.815Z,4.78
2023-03-02T08:50:07.065Z,4.79
2023-03-02T08:52:34.862Z,4.78
2023-03-02T08:55:03.810Z,4.79
2023-03-02T08:57:31.943Z,4.83
2023-03-02T08:59:59.348Z,4.91
2023-03-02T09:02:27.061Z,5.01
2023-03-02T09:04:55.454Z,5.08
2023-03-02T09:07:23.550Z,5.10
2023-03-02T09:09:54.244Z,5.09
2023-03-02T09:12:21.745Z,5.09
2023-03-02T09:14:50.356Z,5.12
2023-03-02T09:17:19.819Z,5.16
2023-03-02T09:19:47.432Z,5.18
2023-03-02T09:22:15.019Z,5.14
2023-03-02T09:24:42.549Z,5.07
2023-03-02T09:27:10.187Z,5.03
2023-03-02T09:29:37.536Z,5.01
2023-03-02T09:32:05.950Z,4.99
2023-03-02T09:34:33.691Z,4.90
2023-03-02T09:37:01.501Z,4.85
2023-03-02T09:39:29.361Z,4.82
2023-03-02T09:42:27.139Z,4.77
2023-03-02T09:45:09.272Z,4.73
2023-03-02T09:48:05.692Z,4.70
2023-03-02T09:50:39.476Z,4.69
2023-03-02T09:53:25.023Z,4.72
2023-03-02T09:56:02.077Z,4.73
2023-03-02T09:58:35.754Z,4.76
2023-03-02T10:01:06.667Z,4.76
2023-03-02T10:03:45.574Z,4.75
2023-03-02T10:06:14.350Z,4.75
2023-03-02T10:08:43.213Z,4.76
2023-03-02T10:11:33.965Z,4.77
2023-03-02T10:14:06.884Z,4.80
2023-03-02T10:16:38.395Z,4.85
2023-03-02T10:19:26.220Z,4.87
2023-03-02T10:22:07.522Z,4.92
2023-03-02T10:24:36.382Z,4.97
2023-03-02T10:27:20.328Z,5.01
2023-03-02T10:29:53.865Z,5.05
2023-03-02T10:32:23.360Z,5.09
2023-03-02T10:34:53.453Z,5.11
2023-03-02T10:37:25.577Z,5.13
2023-03-02T10:39:56.754Z,5.14
2023-03-02T10:42:33.876Z,5.14
2023-03-02T10:45:23.822Z,5.12
2023-03-02T10:48:05.850Z,5.13
2023-03-02T10:50:33.669Z,5.16
2023-03-02T10:53:04.174Z,5.19
2023-03-02T10:55:33.424Z,5.23
2023-03-02T10:58:07.085Z,5.27
2023-03-02T11:00:35.059Z,5.29
2023-03-02T11:03:05.990Z,5.29
2023-03-02T11:05:35.759Z,5.29
2023-03-02T11:08:27.237Z,5.27
2023-03-02T11:11:00.989Z,5.26
2023-03-02T11:13:35.842Z,5.25
2023-03-02T11:16:05.072Z,5.27
2023-03-02T11:18:43.116Z,5.29
2023-03-02T11:21:12.113Z,5.35
2023-03-02T11:24:13.805Z,5.38
2023-03-02T11:26:46.035Z,5.43
2023-03-02T11:29:42.868Z,5.49
2023-03-02T11:32:22.594Z,5.56
2023-03-02T11:35:09.014Z,5.57
2023-03-02T11:37:49.821Z,5.55
2023-03-02T11:40:19.641Z,5.55
2023-03-02T11:42:48.428Z,5.56
2023-03-02T11:45:29.504Z,5.60
2023-03-02T11:48:09.142Z,5.61
2023-03-02T11:50:51.898Z,5.62
2023-03-02T11:53:20.423Z,5.62
2023-03-02T11:55:49.294Z,5.64
2023-03-02T11:58:21.152Z,5.65
2023-03-02T12:00:49.219Z,5.66
2023-03-02T12:03:22.933Z,5.66
2023-03-02T12:05:53.252Z,5.66
2023-03-02T12:08:22.322Z,5.65
2023-03-02T12:11:00.744Z,5.65
2023-03-02T12:13:30.146Z,5.68
2023-03-02T12:15:57.733Z,5.71
2023-03-02T12:18:30.044Z,5.73
2023-03-02T12:21:12.538Z,5.75
2023-03-02T12:23:43.809Z,5.75
2023-03-02T12:26:20.318Z,5.76
2023-03-02T12:29:11.207Z,5.76
2023-03-02T12:31:47.452Z,5.77
2023-03-02T12:34:24.462Z,5.78
2023-03-02T12:36:58.456Z,5.80
2023-03-02T12:39:38.728Z,5.81
2023-03-02T12:42:12.774Z,5.81
2023-03-02T12:44:50.152Z,5.83
2023-03-02T12:47:25.827Z,5.84
2023-03-02T12:50:14.262Z,5.86
2023-03-02T12:52:42.235Z,5.88
2023-03-02T12:55:19.028Z,5.87
2023-03-02T12:57:52.261Z,5.88
2023-03-02T13:00:22.536Z,5.89
2023-03-02T13:02:53.081Z,5.91
2023-03-02T13:05:24.025Z,5.92
2023-03-02T13:08:01.345Z,5.92
2023-03-02T13:10:41.091Z,5.90
2023-03-02T13:13:24.813Z,5.88
2023-03-02T13:15:54.918Z,5.89
2023-03-02T13:18:23.433Z,5.90
2023-03-02T13:20:52.050Z,5.92
2023-03-02T13:23:19.641Z,5.93
2023-03-02T13:25:48.732Z,5.93
2023-03-02T13:28:36.283Z,5.93
2023-03-02T13:31:21.105Z,5.91
2023-03-02T13:33:50.285Z,5.89
2023-03-02T13:36:26.499Z,5.88
2023-03-02T13:38:56.248Z,5.87
2023-03-02T13:41:28.271Z,5.85
2023-03-02T13:43:57.686Z,5.83
2023-03-02T13:46:28.472Z,5.82
2023-03-02T13:49:11.331Z,5.80
2023-03-02T13:51:42.388Z,5.78
2023-03-02T13:54:17.396Z,5.75
2023-03-02T13:56:44.775Z,5.72
2023-03-02T13:59:15.970Z,5.70
2023-03-02T14:01:43.994Z,5.68
2023-03-02T14:04:12.588Z,5.67
2023-03-02T14:06:40.451Z,5.65
2023-03-02T14:09:07.992Z,5.61
2023-03-02T14:11:37.580Z,5.55
2023-03-02T14:14:06.112Z,5.46
2023-03-02T14:16:37.019Z,5.38
2023-03-02T14:19:13.361Z,5.28
2023-03-02T14:21:43.250Z,5.19
2023-03-02T14:24:10.783Z,5.08
2023-03-02T14:26:40.538Z,4.99
2023-03-02T14:29:28.027Z,4.91
2023-03-02T14:31:56.693Z,4.84
2023-03-02T14:34:24.372Z,4.79
2023-03-02T14:36:53.910Z,4.73
2023-03-02T14:39:34.507Z,4.67
2023-03-02T14:42:02.221Z,4.61
2023-03-02T14:44:35.481Z,4.56
2023-03-02T14:47:04.231Z,4.51
2023-03-02T14:49:32.214Z,4.45
2023-03-02T14:52:03.751Z,4.40
2023-03-02T14:54:59.078Z,4.34
2023-03-02T14:57:28.712Z,4.29
2023-03-02T14:59:59.506Z,4.25
2023-03-02T15:02:27.359Z,4.21
2023-03-02T15:05:13.713Z,4.12
2023-03-02T15:07:44.236Z,4.04
2023-03-02T15:10:17.358Z,3.96
2023-03-02T15:12:45.049Z,3.85
2023-03-02T15:15:13.760Z,3.75
2023-03-02T15:17:41.305Z,3.64
2023-03-02T15:20:14.803Z,3.53
2023-03-02T15:22:44.335Z,3.42
2023-03-02T15:25:11.847Z,3.31
2023-03-02T15:27:41.355Z,3.20
2023-03-02T15:30:09.984Z,3.07
2023-03-02T15:32:38.100Z,2.96
2023-03-02T15:35:06.188Z,2.83
2023-03-02T15:37:33.714Z,2.70
2023-03-02T15:40:01.413Z,2.58
2023-03-02T15:42:29.175Z,2.44
2023-03-02T15:45:00.171Z,2.31
2023-03-02T15:47:27.739Z,2.18
2023-03-02T15:49:55.149Z,2.05
2023-03-02T15:52:22.652Z,1.92
2023-03-02T15:54:52.253Z,1.78
2023-03-02T15:57:19.796Z,1.65
2023-03-02T15:59:47.405Z,1.52
2023-03-02T16:02:18.007Z,1.39
2023-03-02T16:04:50.320Z,1.26
2023-03-02T16:07:17.741Z,1.13
2023-03-02T16:09:46.126Z,1.00
2023-03-02T16:12:18.317Z,0.88
2023-03-02T16:14:49.977Z,0.77
2023-03-02T16:17:19.281Z,0.67
2023-03-02T16:19:47.409Z,0.57
2023-03-02T16:22:15.076Z,0.48
2023-03-02T16:24:42.638Z,0.41
2023-03-02T16:27:10.373Z,0.35
2023-03-02T16:29:37.961Z,0.29
2023-03-02T16:32:06.446Z,0.23
2023-03-02T16:34:34.920Z,0.19
2023-03-02T16:37:03.228Z,0.16
2023-03-02T16:39:32.707Z,0.14
2023-03-02T16:42:00.378Z,0.17
2023-03-02T16:44:28.056Z,0.25
2023-03-02T16:46:57.322Z,0.31
2023-03-02T16:49:29.941Z,0.38
2023-03-02T16:51:58.485Z,0.48
2023-03-02T16:54:26.148Z,0.59
2023-03-02T16:56:54.571Z,0.68
2023-03-02T16:59:25.784Z,0.76
2023-03-02T17:01:53.563Z,0.84
2023-03-02T17:04:21.917Z,0.92
2023-03-02T17:07:00.460Z,1.00
2023-03-02T17:09:29.077Z,1.06
2023-03-02T17:11:57.006Z,1.09
2023-03-02T17:14:25.274Z,1.09
2023-03-02T17:16:56.152Z,1.08
2023-03-02T17:19:26.859Z,1.07
2023-03-02T17:21:59.412Z,1.07
2023-03-02T17:24:27.710Z,1.06
2023-03-02T17:26:55.496Z,1.06
2023-03-02T17:29:23.463Z,1.04
2023-03-02T17:31:51.273Z,1.01
2023-03-02T17:34:21.431Z,0.99
2023-03-02T17:36:49.091Z,0.97
2023-03-02T17:39:17.002Z,0.94
2023-03-02T17:41:44.864Z,0.90
2023-03-02T17:44:12.929Z,0.88
2023-03-02T17:46:42.788Z,0.85
2023-03-02T17:49:10.701Z,0.82
2023-03-02T17:51:38.397Z,0.78
2023-03-02T17:54:06.060Z,0.74
2023-03-02T17:56:33.995Z,0.69
2023-03-02T17:59:03.046Z,0.62
2023-03-02T18:01:32.112Z,0.54
2023-03-02T18:04:00.231Z,0.45
2023-03-02T18:06:28.112Z,0.37
2023-03-02T18:08:55.846Z,0.29
2023-03-02T18:11:23.687Z,0.22
2023-03-02T18:13:54.665Z,0.18
2023-03-02T18:16:30.715Z,0.13
2023-03-02T18:18:59.450Z,0.08
2023-03-02T18:21:27.517Z,0.04
2023-03-02T18:23:55.127Z,-0.02
2023-03-02T18:26:24.207Z,-0.08
2023-03-02T18:28:54.787Z,-0.14
2023-03-02T18:31:22.433Z,-0.19
2023-03-02T18:33:50.218Z,-0.23
2023-03-02T18:36:18.153Z,-0.28
2023-03-02T18:38:45.759Z,-0.33
2023-03-02T18:41:13.426Z,-0.38
2023-03-02T18:43:41.467Z,-0.44
2023-03-02T18:46:24.787Z,-0.51
2023-03-02T18:48:53.198Z,-0.57
2023-03-02T18:51:21.939Z,-0.60
2023-03-02T18:53:50.719Z,-0.62
2023-03-02T18:56:18.746Z,-0.65
2023-03-02T18:58:47.102Z,-0.70
2023-03-02T19:01:15.057Z,-0.74
2023-03-02T19:03:45.509Z,-0.79
2023-03-02T19:06:13.790Z,-0.84
2023-03-02T19:08:55.280Z,-0.90
2023-03-02T19:11:22.899Z,-0.96
2023-03-02T19:13:50.673Z,-1.02
2023-03-02T19:16:19.398Z,-1.08
2023-03-02T19:18:48.369Z,-1.14
2023-03-02T19:21:16.893Z,-1.20
2023-03-02T19:23:46.221Z,-1.25
2023-03-02T19:26:15.108Z,-1.31
2023-03-02T19:28:47.385Z,-1.38
2023-03-02T19:31:17.502Z,-1.44
2023-03-02T19:33:45.832Z,-1.49
2023-03-02T19:36:13.522Z,-1.53
2023-03-02T19:38:42.825Z,-1.59
2023-03-02T19:41:12.913Z,-1.65
2023-03-02T19:43:42.482Z,-1.71
2023-03-02T19:46:13.839Z,-1.76
2023-03-02T19:48:42.227Z,-1.82
2023-03-02T19:51:10.969Z,-1.86
2023-03-02T19:53:38.766Z,-1.91
2023-03-02T19:56:08.887Z,-1.97
2023-03-02T19:58:46.382Z,-2.03
2023-03-02T20:01:21.340Z,-2.09
2023-03-02T20:03:51.465Z,-2.13
2023-03-02T20:06:20.681Z,-2.17
2023-03-02T20:08:48.757Z,-2.20
2023-03-02T20:11:17.481Z,-2.21
2023-03-02T20:13:45.322Z,-2.21
2023-03-02T20:16:16.256Z,-2.21
2023-03-02T20:18:45.336Z,-2.20
2023-03-02T20:21:13.044Z,-2.18
2023-03-02T20:23:40.935Z,-2.17
2023-03-02T20:26:08.779Z,-2.16
2023-03-02T20:28:36.825Z,-2.16
2023-03-02T20:31:08.681Z,-2.17
2023-03-02T20:33:41.236Z,-2.19
2023-03-02T20:36:08.940Z,-2.21
2023-03-02T20:38:43.510Z,-2.22
2023-03-02T20:41:12.803Z,-2.23
2023-03-02T20:43:41.724Z,-2.24
2023-03-02T20:46:22.376Z,-2.25
2023-03-02T20:48:50.287Z,-2.25
2023-03-02T20:51:19.396Z,-2.25
2023-03-02T20:53:52.913Z,-2.25
2023-03-02T20:56:20.725Z,-2.26
2023-03-02T20:58:48.660Z,-2.27
2023-03-02T21:01:17.057Z,-2.29
2023-03-02T21:03:44.853Z,-2.31
2023-03-02T21:06:12.622Z,-2.33
2023-03-02T21:08:40.848Z,-2.35
2023-03-02T21:11:15.380Z,-2.36
2023-03-02T21:13:47.137Z,-2.37
2023-03-02T21:16:18.258Z,-2.38
2023-03-02T21:18:46.516Z,-2.39
2023-03-02T21:21:15.569Z,-2.40
2023-03-02T21:23:43.228Z,-2.40
2023-03-02T21:26:11.854Z,-2.39
2023-03-02T21:28:43.821Z,-2.38
2023-03-02T21:31:16.759Z,-2.37
2023-03-02T21:33:44.808Z,-2.36
2023-03-02T21:36:19.144Z,-2.35
2023-03-02T21:38:46.855Z,-2.34
2023-03-02T21:41:14.327Z,-2.34
2023-03-02T21:43:42.084Z,-2.33
2023-03-02T21:46:12.539Z,-2.31
2023-03-02T21:48:40.719Z,-2.27
2023-03-02T21:51:11.076Z,-2.20
2023-03-02T21:53:38.695Z,-2.12
2023-03-02T21:56:07.469Z,-2.03
2023-03-02T21:58:35.085Z,-1.95
2023-03-02T22:01:03.284Z,-1.86
2023-03-02T22:03:30.954Z,-1.76
2023-03-02T22:05:59.283Z,-1.67
2023-03-02T22:08:27.398Z,-1.58
2023-03-02T22:10:55.582Z,-1.51
2023-03-02T22:13:27.586Z,-1.44
2023-03-02T22:16:24.162Z,-1.36
2023-03-02T22:18:57.427Z,-1.28
2023-03-02T22:21:38.706Z,-1.22
2023-03-02T22:24:09.501Z,-1.16
2023-03-02T22:26:43.541Z,-1.10
2023-03-02T22:29:21.390Z,-1.05
2023-03-02T22:31:50.518Z,-0.99
2023-03-02T22:34:40.965Z,-0.94
2023-03-02T22:37:17.363Z,-0.87
2023-03-02T22:39:45.107Z,-0.82
2023-03-02T22:42:20.896Z,-0.76
2023-03-02T22:45:12.666Z,-0.71
2023-03-02T22:47:43.040Z,-0.65
2023-03-02T22:50:25.069Z,-0.60
2023-03-02T22:52:54.604Z,-0.56
2023-03-02T22:55:28.326Z,-0.50
2023-03-02T22:57:56.933Z,-0.46
2023-03-02T23:00:37.407Z,-0.42
2023-03-02T23:03:21.762Z,-0.38
2023-03-02T23:05:51.424Z,-0.33
2023-03-02T23:08:24.893Z,-0.30
2023-03-02T23:10:57.457Z,-0.26
2023-03-02T23:13:39.728Z,-0.23
2023-03-02T23:16:19.936Z,-0.20
2023-03-02T23:18:50.065Z,-0.16
2023-03-02T23:21:28.265Z,-0.13
2023-03-02T23:23:56.487Z,-0.10
2023-03-02T23:26:23.984Z,-0.07
2023-03-02T23:29:11.623Z,-0.03
2023-03-02T23:31:39.742Z,-0.01
2023-03-02T23:34:07.437Z,0.02
2023-03-02T23:36:37.468Z,0.04
2023-03-02T23:39:06.903Z,0.07
2023-03-02T23:41:35.864Z,0.09
2023-03-02T23:44:04.702Z,0.11
2023-03-02T23:46:34.203Z,0.13
2023-03-02T23:49:03.486Z,0.15
2023-03-02T23:51:31.737Z,0.17
2023-03-02T23:54:04.739Z,0.19
2023-03-02T23:56:32.649Z,0.21
2023-03-02T23:59:00.278Z,0.23
